1878 Tropical Storm NOT_NAMED (1878329N17310)


IBTrACS version v04r00. Visit IBTrACS website for data access.
Please direct all questions to the IBTrACS Q and A forum

Storm track - Intensity - Wind Radii - Intensity Data - Source Data - All data

Summary Information

Storm ID 1878329N17310
Start Nov 25 00Z
Landfall Nov 29 09Z, Dec 1 06Z, Dec 2 00Z
Max Intensity 55 kt (Nov 26 06Z)
End Dec 2 18Z
ATCF IDs
Track status Best track data.

Storm track plot

Map of storm track

Intensity plots

Map of storm track

Radial wind information

No radial wind information for this storm


Position and Intensity Table

BASIN ISO_TIME_________ NATURE LAT LON MLC WIND
degrees north degrees east kts
NA 1878-11-25 00:00:00 TS 17.00 -50.00 30
NA 03:00:00 TS 17.00 -49.96 32
NA 06:00:00 TS 17.00 -50.00 35
NA 09:00:00 TS 17.00 -50.19 37
NA 12:00:00 TS 17.00 -50.50 40
NA 15:00:00 TS 16.99 -50.89 40
NA 18:00:00 TS 17.00 -51.30 40
NA 21:00:00 TS 17.03 -51.65 42
NA 1878-11-26 00:00:00 TS 17.10 -52.00 45
NA 03:00:00 TS 17.19 -52.40 50
NA 06:00:00 TS 17.30 -52.80 55
NA 09:00:00 TS 17.38 -53.12 55
NA 12:00:00 TS 17.50 -53.50 55
NA 15:00:00 TS 17.74 -54.07 55
NA 18:00:00 TS 18.00 -54.70 55
NA 21:00:00 TS 18.20 -55.26 55
NA 1878-11-27 00:00:00 TS 18.40 -55.80 55
NA 03:00:00 TS 18.65 -56.35 55
NA 06:00:00 TS 18.90 -56.90 55
NA 09:00:00 TS 19.13 -57.45 55
NA 12:00:00 TS 19.30 -58.00 55
NA 15:00:00 TS 19.37 -58.55 55
NA 18:00:00 TS 19.40 -59.10 55
NA 21:00:00 TS 19.46 -59.63 55
NA 1878-11-28 00:00:00 TS 19.50 -60.20 55
NA 03:00:00 TS 19.51 -60.83 55
NA 06:00:00 TS 19.50 -61.50 55
NA 09:00:00 TS 19.46 -62.17 55
NA 12:00:00 TS 19.40 -62.80 55
NA 15:00:00 TS 19.31 -63.33 55
NA 18:00:00 TS 19.20 -63.80 55
NA 21:00:00 TS 19.11 -64.26 55
NA 1878-11-29 00:00:00 TS 19.00 -64.70 55
NA 03:00:00 TS 18.81 -65.12 55
NA 06:00:00 TS 18.60 -65.50 55
NA 09:00:00 TS 18.44 -65.82 55
NA 12:00:00 TS 18.30 -66.10 55
NA 15:00:00 TS 18.14 -66.36 55
NA 18:00:00 TS 18.00 -66.60 55
NA 21:00:00 TS 17.88 -66.81 55
NA 1878-11-30 00:00:00 TS 17.80 -67.00 55
NA 03:00:00 TS 17.78 -67.16 55
NA 06:00:00 TS 17.80 -67.30 55
NA 09:00:00 TS 17.83 -67.45 55
NA 12:00:00 TS 17.90 -67.60 55
NA 15:00:00 TS 18.00 -67.75 55
NA 18:00:00 TS 18.10 -67.90 55
NA 21:00:00 TS 18.15 -68.05 55
NA 1878-12-01 00:00:00 TS 18.20 -68.20 55
NA 03:00:00 TS 18.32 -68.34 55
NA 06:00:00 TS 18.40 -68.50 55
NA 09:00:00 TS 18.31 -68.68 55
NA 12:00:00 TS 18.20 -68.90 55
NA 15:00:00 TS 18.18 -69.15 55
NA 18:00:00 TS 18.20 -69.50 55
NA 21:00:00 TS 18.25 -69.99 55
NA 1878-12-02 00:00:00 TS 18.30 -70.60 55
NA 03:00:00 TS 18.30 -71.27 55
NA 06:00:00 TS 18.30 -72.00 55
NA 09:00:00 TS 18.34 -72.74 55
NA 12:00:00 TS 18.40 -73.50 55
NA 15:00:00 TS 18.45 -74.25 50
NA 18:00:00 TS 18.50 -75.00 45

Source Information

Agency Information
USA
TOKYO
CMA
HKO
NEWDELHI
REUNION
BOM
NADI
WELLINGTON
DS824
TD9636
TD9635
NEUMANN
MLC

All available IBTrACS Data

SEASON BASIN SUBBASIN ISO_TIME_________ NATURE LAT LON DIST2LAND LANDFALL IFLAG USA SSHS MLC LAT MLC LON MLC CLASS MLC WIND STORM SPEED STORM DIR
Year degrees north degrees east km km 1 degrees north degrees east kts kts degrees
1878 NA NA 1878-11-25 00:00:00 TS 17.00 -50.00 1324 1324 _____________O -1 17.00 -50.00 TD 30 1 90
1878 NA NA 03:00:00 TS 17.00 -49.96 1324 1324 _____________P -1 17.00 -49.96 TD 32 0 0
1878 NA NA 06:00:00 TS 17.00 -50.00 1324 1317 _____________O -1 17.00 -50.00 TS 35 2 270
1878 NA NA 09:00:00 TS 17.00 -50.19 1317 1306 _____________P -1 17.00 -50.19 TS 37 5 270
1878 NA NA 12:00:00 TS 17.00 -50.50 1306 1293 _____________O -1 17.00 -50.50 TS 40 7 269
1878 NA NA 15:00:00 TS 16.99 -50.89 1293 1262 _____________P -1 16.99 -50.89 TS 40 8 270
1878 NA NA 18:00:00 TS 17.00 -51.30 1262 1235 _____________O -1 17.00 -51.30 TS 40 7 273
1878 NA NA 21:00:00 TS 17.03 -51.65 1226 1206 _____________P -1 17.03 -51.65 TS 42 7 279
1878 NA NA 1878-11-26 00:00:00 TS 17.10 -52.00 1206 1179 _____________O -1 17.10 -52.00 TS 45 7 282
1878 NA NA 03:00:00 TS 17.19 -52.40 1179 1152 _____________P -1 17.19 -52.40 TS 50 8 285
1878 NA NA 06:00:00 TS 17.30 -52.80 1152 1135 _____________O -1 17.30 -52.80 TS 55 7 285
1878 NA NA 09:00:00 TS 17.38 -53.12 1135 1110 _____________P -1 17.38 -53.12 TS 55 7 287
1878 NA NA 12:00:00 TS 17.50 -53.50 1110 1087 _____________O -1 17.50 -53.50 TS 55 10 292
1878 NA NA 15:00:00 TS 17.74 -54.07 1080 1060 _____________P -1 17.74 -54.07 TS 55 12 294
1878 NA NA 18:00:00 TS 18.00 -54.70 1062 1043 _____________O -1 18.00 -54.70 TS 55 12 292
1878 NA NA 21:00:00 TS 18.20 -55.26 1039 1027 _____________P -1 18.20 -55.26 TS 55 11 291
1878 NA NA 1878-11-27 00:00:00 TS 18.40 -55.80 1027 980 _____________O -1 18.40 -55.80 TS 55 11 293
1878 NA NA 03:00:00 TS 18.65 -56.35 970 918 _____________P -1 18.65 -56.35 TS 55 12 296
1878 NA NA 06:00:00 TS 18.90 -56.90 918 866 _____________O -1 18.90 -56.90 TS 55 11 295
1878 NA NA 09:00:00 TS 19.13 -57.45 866 806 _____________P -1 19.13 -57.45 TS 55 11 291
1878 NA NA 12:00:00 TS 19.30 -58.00 806 755 _____________O -1 19.30 -58.00 TS 55 11 283
1878 NA NA 15:00:00 TS 19.37 -58.55 744 692 _____________P -1 19.37 -58.55 TS 55 10 276
1878 NA NA 18:00:00 TS 19.40 -59.10 692 642 _____________O -1 19.40 -59.10 TS 55 10 275
1878 NA NA 21:00:00 TS 19.46 -59.63 642 581 _____________P -1 19.46 -59.63 TS 55 10 276
1878 NA NA 1878-11-28 00:00:00 TS 19.50 -60.20 581 519 _____________O -1 19.50 -60.20 TS 55 11 273
1878 NA NA 03:00:00 TS 19.51 -60.83 519 448 _____________P -1 19.51 -60.83 TS 55 12 270
1878 NA NA 06:00:00 TS 19.50 -61.50 448 388 _____________O -1 19.50 -61.50 TS 55 13 268
1878 NA NA 09:00:00 TS 19.46 -62.17 378 315 _____________P -1 19.46 -62.17 TS 55 12 265
1878 NA NA 12:00:00 TS 19.40 -62.80 315 262 _____________O -1 19.40 -62.80 TS 55 11 262
1878 NA NA 15:00:00 TS 19.31 -63.33 262 209 _____________P -1 19.31 -63.33 TS 55 10 258
1878 NA NA 18:00:00 TS 19.20 -63.80 209 166 _____________O -1 19.20 -63.80 TS 55 9 258
1878 NA NA 21:00:00 TS 19.11 -64.26 157 116 _____________P -1 19.11 -64.26 TS 55 9 257
1878 NA NA 1878-11-29 00:00:00 TS 19.00 -64.70 116 69 _____________O -1 19.00 -64.70 TS 55 9 249
1878 NA CS 03:00:00 TS 18.81 -65.12 69 24 _____________P -1 18.81 -65.12 TS 55 9 242
1878 NA CS 06:00:00 TS 18.60 -65.50 24 11 _____________O -1 18.60 -65.50 TS 55 8 241
1878 NA NA 09:00:00 TS 18.44 -65.82 0 0 _____________P -1 18.44 -65.82 TS 55 6 242
1878 NA NA 12:00:00 TS 18.30 -66.10 0 0 _____________O -1 18.30 -66.10 TS 55 6 240
1878 NA NA 15:00:00 TS 18.14 -66.36 0 0 _____________P -1 18.14 -66.36 TS 55 6 238
1878 NA CS 18:00:00 TS 18.00 -66.60 0 0 _____________O -1 18.00 -66.60 TS 55 5 238
1878 NA CS 21:00:00 TS 17.88 -66.81 10 0 _____________P -1 17.88 -66.81 TS 55 4 242
1878 NA CS 1878-11-30 00:00:00 TS 17.80 -67.00 15 15 _____________O -1 17.80 -67.00 TS 55 3 253
1878 NA CS 03:00:00 TS 17.78 -67.16 11 11 _____________P -1 17.78 -67.16 TS 55 3 270
1878 NA CS 06:00:00 TS 17.80 -67.30 15 15 _____________O -1 17.80 -67.30 TS 55 3 282
1878 NA CS 09:00:00 TS 17.83 -67.45 33 31 _____________P -1 17.83 -67.45 TS 55 3 289
1878 NA CS 12:00:00 TS 17.90 -67.60 42 42 _____________O -1 17.90 -67.60 TS 55 3 300
1878 NA CS 15:00:00 TS 18.00 -67.75 52 52 _____________P -1 18.00 -67.75 TS 55 3 305
1878 NA CS 18:00:00 TS 18.10 -67.90 67 57 _____________O -1 18.10 -67.90 TS 55 3 298
1878 NA CS 21:00:00 TS 18.15 -68.05 43 33 _____________P -1 18.15 -68.05 TS 55 3 289
1878 NA CS 1878-12-01 00:00:00 TS 18.20 -68.20 33 21 _____________O -1 18.20 -68.20 TS 55 3 302
1878 NA CS 03:00:00 TS 18.32 -68.34 21 0 _____________P -1 18.32 -68.34 TS 55 3 305
1878 NA CS 06:00:00 TS 18.40 -68.50 0 0 _____________O -1 18.40 -68.50 TS 55 3 269
1878 NA NA 09:00:00 TS 18.31 -68.68 0 0 _____________P -1 18.31 -68.68 TS 55 4 242
1878 NA CS 12:00:00 TS 18.20 -68.90 10 10 _____________O -1 18.20 -68.90 TS 55 5 253
1878 NA CS 15:00:00 TS 18.18 -69.15 24 24 _____________P -1 18.18 -69.15 TS 55 6 270
1878 NA CS 18:00:00 TS 18.20 -69.50 24 15 _____________O -1 18.20 -69.50 TS 55 8 275
1878 NA CS 21:00:00 TS 18.25 -69.99 15 0 _____________P -1 18.25 -69.99 TS 55 11 275
1878 NA CS 1878-12-02 00:00:00 TS 18.30 -70.60 0 0 _____________O -1 18.30 -70.60 TS 55 12 272
1878 NA NA 03:00:00 TS 18.30 -71.27 0 0 _____________P -1 18.30 -71.27 TS 55 13 270
1878 NA NA 06:00:00 TS 18.30 -72.00 0 0 _____________O -1 18.30 -72.00 TS 55 14 272
1878 NA NA 09:00:00 TS 18.34 -72.74 0 0 _____________P -1 18.34 -72.74 TS 55 14 274
1878 NA NA 12:00:00 TS 18.40 -73.50 0 0 _____________O -1 18.40 -73.50 TS 55 14 274
1878 NA NA 15:00:00 TS 18.45 -74.25 0 0 _____________P -1 18.45 -74.25 TS 50 14 274
1878 NA CS 18:00:00 TS 18.50 -75.00 53 _____________O -1 18.50 -75.00 TS 45 14 274